Disclaimer

Please do not use the information listed here in-flight or in-navigation, as they are not provided to us by the airports but are provided by volunteers, so they might be outdated.

Search


Regions


Airport information page

Radio informations:
INFO - 135.6 MHz
MUNCHEN INFO - 126.95 MHz

Airport informations:
Latitude: 47° 59' 19.53" N
Longitude: 010° 14' 22.20" E
Elevation: 2077 feet - 633 meters
Operating hours: Remarks
Operating agency: Civil government, landing fees and diplomatic clearance may be required
Timezone: UTC+1(+2DT) - Last Sunday in March to last Sunday in October
Fuel: Jet A1, without icing nhibitor.

100/130 MIL Spec, low lead, aviation gasoline (BLUE)

Runway information:
06/24 - 9780 x 98 feet< - >2981 x 30 meters

Recent METARs:
EDJA 151220Z 06007KT 030V100 9999 OVC018 M03/M07 Q1021
EDJA 151250Z 06007KT 040V100 9999 OVC019 M03/M07 Q1021
EDJA 151320Z 08006KT 030V120 9999 BKN018 M03/M07 Q1021

Airport on the map: